sensor_id;sensor_type;location;lat;lon;timestamp;temperature;humidity
14519;DHT22;7346;50.846;4.388;2022-09-27T00:00:14;11.10;99.90
14519;DHT22;7346;50.846;4.388;2022-09-27T00:02:41;11.00;99.90
14519;DHT22;7346;50.846;4.388;2022-09-27T00:05:09;11.10;99.90
14519;DHT22;7346;50.846;4.388;2022-09-27T00:07:36;11.10;99.90
14519;DHT22;7346;50.846;4.388;2022-09-27T00:10:04;11.10;99.90
14519;DHT22;7346;50.846;4.388;2022-09-27T00:12:32;11.10;99.90
14519;DHT22;7346;50.846;4.388;2022-09-27T00:14:59;11.10;99.90
14519;DHT22;7346;50.846;4.388;2022-09-27T00:17:27;11.10;99.90
14519;DHT22;7346;50.846;4.388;2022-09-27T00:19:57;11.10;99.90
14519;DHT22;7346;50.846;4.388;2022-09-27T00:22:24;11.10;99.90
14519;DHT22;7346;50.846;4.388;2022-09-27T00:24:52;11.10;99.90
14519;DHT22;7346;50.846;4.388;2022-09-27T00:27:19;11.20;99.90
14519;DHT22;7346;50.846;4.388;2022-09-27T00:29:48;11.20;99.90
14519;DHT22;7346;50.846;4.388;2022-09-27T00:32:15;11.20;99.90
14519;DHT22;7346;50.846;4.388;2022-09-27T00:34:42;11.20;99.90
14519;DHT22;7346;50.846;4.388;2022-09-27T00:37:10;11.20;99.90
14519;DHT22;7346;50.846;4.388;2022-09-27T00:39:37;11.20;99.90
14519;DHT22;7346;50.846;4.388;2022-09-27T00:42:04;11.20;99.90
14519;DHT22;7346;50.846;4.388;2022-09-27T00:44:59;11.30;99.90
14519;DHT22;7346;50.846;4.388;2022-09-27T00:47:30;11.20;99.90
14519;DHT22;7346;50.846;4.388;2022-09-27T00:50:03;11.30;99.90
14519;DHT22;7346;50.846;4.388;2022-09-27T00:52:35;11.20;99.90
14519;DHT22;7346;50.846;4.388;2022-09-27T00:55:10;11.20;99.90
14519;DHT22;7346;50.846;4.388;2022-09-27T00:57:38;11.10;99.90
14519;DHT22;7346;50.846;4.388;2022-09-27T01:00:10;11.10;99.90
14519;DHT22;7346;50.846;4.388;2022-09-27T01:02:40;11.10;99.90
14519;DHT22;7346;50.846;4.388;2022-09-27T01:05:09;11.10;99.90
14519;DHT22;7346;50.846;4.388;2022-09-27T01:07:38;11.10;99.90
14519;DHT22;7346;50.846;4.388;2022-09-27T01:10:05;11.10;99.90
14519;DHT22;7346;50.846;4.388;2022-09-27T01:12:41;11.10;99.90
14519;DHT22;7346;50.846;4.388;2022-09-27T01:15:19;11.20;99.90
14519;DHT22;7346;50.846;4.388;2022-09-27T01:17:59;11.10;99.90
14519;DHT22;7346;50.846;4.388;2022-09-27T01:24:02;11.10;99.90
14519;DHT22;7346;50.846;4.388;2022-09-27T01:27:16;11.00;99.90
14519;DHT22;7346;50.846;4.388;2022-09-27T01:32:35;11.00;99.90
14519;DHT22;7346;50.846;4.388;2022-09-27T01:35:07;11.00;99.90
14519;DHT22;7346;50.846;4.388;2022-09-27T01:37:41;10.80;99.90
14519;DHT22;7346;50.846;4.388;2022-09-27T01:40:19;10.80;99.90
14519;DHT22;7346;50.846;4.388;2022-09-27T01:42:55;10.80;99.90
14519;DHT22;7346;50.846;4.388;2022-09-27T01:45:27;10.80;99.90
14519;DHT22;7346;50.846;4.388;2022-09-27T01:48:00;10.80;99.90
14519;DHT22;7346;50.846;4.388;2022-09-27T01:50:31;10.90;99.90
14519;DHT22;7346;50.846;4.388;2022-09-27T01:53:02;10.90;99.90
14519;DHT22;7346;50.846;4.388;2022-09-27T01:55:34;10.90;99.90
14519;DHT22;7346;50.846;4.388;2022-09-27T01:58:05;10.90;99.90
14519;DHT22;7346;50.846;4.388;2022-09-27T02:00:34;10.90;99.90
14519;DHT22;7346;50.846;4.388;2022-09-27T02:03:08;10.90;99.90
14519;DHT22;7346;50.846;4.388;2022-09-27T02:05:40;11.00;99.90
14519;DHT22;7346;50.846;4.388;2022-09-27T02:08:15;11.00;99.90
14519;DHT22;7346;50.846;4.388;2022-09-27T02:10:44;11.00;99.90
14519;DHT22;7346;50.846;4.388;2022-09-27T02:13:18;10.90;99.90
14519;DHT22;7346;50.846;4.388;2022-09-27T02:15:56;11.00;99.90
14519;DHT22;7346;50.846;4.388;2022-09-27T02:18:29;11.00;99.90
14519;DHT22;7346;50.846;4.388;2022-09-27T02:21:02;11.00;99.90
14519;DHT22;7346;50.846;4.388;2022-09-27T02:23:35;11.00;99.90
14519;DHT22;7346;50.846;4.388;2022-09-27T02:26:11;10.90;99.90
14519;DHT22;7346;50.846;4.388;2022-09-27T02:28:42;11.00;99.90
14519;DHT22;7346;50.846;4.388;2022-09-27T02:31:10;10.90;99.90
14519;DHT22;7346;50.846;4.388;2022-09-27T02:33:42;10.80;99.90
14519;DHT22;7346;50.846;4.388;2022-09-27T02:36:11;10.70;99.90
14519;DHT22;7346;50.846;4.388;2022-09-27T02:38:40;10.70;99.90
14519;DHT22;7346;50.846;4.388;2022-09-27T02:41:12;10.70;99.90
14519;DHT22;7346;50.846;4.388;2022-09-27T02:43:41;10.70;99.90
14519;DHT22;7346;50.846;4.388;2022-09-27T02:46:24;10.60;99.90
14519;DHT22;7346;50.846;4.388;2022-09-27T02:49:03;10.60;99.90
14519;DHT22;7346;50.846;4.388;2022-09-27T02:51:43;10.60;99.90
14519;DHT22;7346;50.846;4.388;2022-09-27T02:54:18;10.60;99.90
14519;DHT22;7346;50.846;4.388;2022-09-27T02:57:00;10.70;99.90
14519;DHT22;7346;50.846;4.388;2022-09-27T02:59:37;10.70;99.90
14519;DHT22;7346;50.846;4.388;2022-09-27T03:02:11;10.70;99.90
14519;DHT22;7346;50.846;4.388;2022-09-27T03:04:43;10.70;99.90
14519;DHT22;7346;50.846;4.388;2022-09-27T03:07:13;10.70;99.90
14519;DHT22;7346;50.846;4.388;2022-09-27T03:09:42;10.70;99.90
14519;DHT22;7346;50.846;4.388;2022-09-27T03:12:10;10.70;99.90
14519;DHT22;7346;50.846;4.388;2022-09-27T03:14:37;10.70;99.90
14519;DHT22;7346;50.846;4.388;2022-09-27T03:17:04;10.70;99.90
14519;DHT22;7346;50.846;4.388;2022-09-27T03:19:31;10.80;99.90
14519;DHT22;7346;50.846;4.388;2022-09-27T03:22:00;10.80;99.90
14519;DHT22;7346;50.846;4.388;2022-09-27T03:24:27;10.80;99.90
14519;DHT22;7346;50.846;4.388;2022-09-27T03:26:54;10.80;99.90
14519;DHT22;7346;50.846;4.388;2022-09-27T03:29:20;10.80;99.90
14519;DHT22;7346;50.846;4.388;2022-09-27T03:31:47;10.80;99.90
14519;DHT22;7346;50.846;4.388;2022-09-27T03:34:14;10.80;99.90
14519;DHT22;7346;50.846;4.388;2022-09-27T03:36:41;10.80;99.90
14519;DHT22;7346;50.846;4.388;2022-09-27T03:39:10;10.70;99.90
14519;DHT22;7346;50.846;4.388;2022-09-27T03:41:37;10.80;99.90
14519;DHT22;7346;50.846;4.388;2022-09-27T03:44:04;10.70;99.90
14519;DHT22;7346;50.846;4.388;2022-09-27T03:46:31;10.70;99.90
14519;DHT22;7346;50.846;4.388;2022-09-27T03:48:58;10.70;99.90
14519;DHT22;7346;50.846;4.388;2022-09-27T03:51:25;10.70;99.90
14519;DHT22;7346;50.846;4.388;2022-09-27T03:53:52;10.70;99.90
14519;DHT22;7346;50.846;4.388;2022-09-27T03:56:21;10.70;99.90
14519;DHT22;7346;50.846;4.388;2022-09-27T03:58:48;10.80;99.90
14519;DHT22;7346;50.846;4.388;2022-09-27T04:01:15;10.80;99.90
14519;DHT22;7346;50.846;4.388;2022-09-27T04:03:42;10.70;99.90
14519;DHT22;7346;50.846;4.388;2022-09-27T04:06:10;10.60;99.90
14519;DHT22;7346;50.846;4.388;2022-09-27T04:08:47;10.50;99.90
14519;DHT22;7346;50.846;4.388;2022-09-27T04:11:14;10.50;99.90
14519;DHT22;7346;50.846;4.388;2022-09-27T04:13:46;10.40;99.90
14519;DHT22;7346;50.846;4.388;2022-09-27T04:16:14;10.40;99.90
14519;DHT22;7346;50.846;4.388;2022-09-27T04:18:46;10.40;99.90
14519;DHT22;7346;50.846;4.388;2022-09-27T04:21:13;10.50;99.90
14519;DHT22;7346;50.846;4.388;2022-09-27T04:23:40;10.50;99.90
14519;DHT22;7346;50.846;4.388;2022-09-27T04:26:07;10.50;99.90
14519;DHT22;7346;50.846;4.388;2022-09-27T04:28:34;10.50;99.90
14519;DHT22;7346;50.846;4.388;2022-09-27T04:31:03;10.50;99.90
14519;DHT22;7346;50.846;4.388;2022-09-27T04:33:30;10.50;99.90
14519;DHT22;7346;50.846;4.388;2022-09-27T04:35:57;10.50;99.90
14519;DHT22;7346;50.846;4.388;2022-09-27T04:38:41;10.50;99.90
14519;DHT22;7346;50.846;4.388;2022-09-27T04:41:09;10.50;99.90
14519;DHT22;7346;50.846;4.388;2022-09-27T04:43:36;10.40;99.90
14519;DHT22;7346;50.846;4.388;2022-09-27T04:46:04;10.50;99.90
14519;DHT22;7346;50.846;4.388;2022-09-27T04:48:32;10.50;99.90
14519;DHT22;7346;50.846;4.388;2022-09-27T04:51:00;10.60;99.90
14519;DHT22;7346;50.846;4.388;2022-09-27T04:53:28;10.60;99.90
14519;DHT22;7346;50.846;4.388;2022-09-27T04:55:55;10.50;99.90
14519;DHT22;7346;50.846;4.388;2022-09-27T04:58:23;10.40;99.90
14519;DHT22;7346;50.846;4.388;2022-09-27T05:00:50;10.40;99.90
14519;DHT22;7346;50.846;4.388;2022-09-27T05:03:21;10.40;99.90
14519;DHT22;7346;50.846;4.388;2022-09-27T05:05:49;10.50;99.90
14519;DHT22;7346;50.846;4.388;2022-09-27T05:08:16;10.50;99.90
14519;DHT22;7346;50.846;4.388;2022-09-27T05:10:43;10.50;99.90
14519;DHT22;7346;50.846;4.388;2022-09-27T05:13:10;10.40;99.90
14519;DHT22;7346;50.846;4.388;2022-09-27T05:15:37;10.40;99.90
14519;DHT22;7346;50.846;4.388;2022-09-27T05:18:04;10.40;99.90
14519;DHT22;7346;50.846;4.388;2022-09-27T05:20:35;10.40;99.90
14519;DHT22;7346;50.846;4.388;2022-09-27T05:23:02;10.50;99.90
14519;DHT22;7346;50.846;4.388;2022-09-27T05:25:29;10.50;99.90
14519;DHT22;7346;50.846;4.388;2022-09-27T05:27:59;10.60;99.90
14519;DHT22;7346;50.846;4.388;2022-09-27T05:30:26;10.60;99.90
14519;DHT22;7346;50.846;4.388;2022-09-27T05:32:53;10.60;99.90
14519;DHT22;7346;50.846;4.388;2022-09-27T05:35:20;10.60;99.90
14519;DHT22;7346;50.846;4.388;2022-09-27T05:37:52;10.60;99.90
14519;DHT22;7346;50.846;4.388;2022-09-27T05:40:19;10.50;99.90
14519;DHT22;7346;50.846;4.388;2022-09-27T05:42:50;10.50;99.90
14519;DHT22;7346;50.846;4.388;2022-09-27T05:45:17;10.50;99.90
14519;DHT22;7346;50.846;4.388;2022-09-27T05:47:52;10.50;99.90
14519;DHT22;7346;50.846;4.388;2022-09-27T05:50:18;10.40;99.90
14519;DHT22;7346;50.846;4.388;2022-09-27T05:52:46;10.30;99.90
14519;DHT22;7346;50.846;4.388;2022-09-27T05:55:15;10.30;99.90
14519;DHT22;7346;50.846;4.388;2022-09-27T05:57:42;10.30;99.90
14519;DHT22;7346;50.846;4.388;2022-09-27T06:00:19;10.20;99.90
14519;DHT22;7346;50.846;4.388;2022-09-27T06:02:52;10.20;99.90
14519;DHT22;7346;50.846;4.388;2022-09-27T06:05:19;10.20;99.90
14519;DHT22;7346;50.846;4.388;2022-09-27T06:07:46;10.20;99.90
14519;DHT22;7346;50.846;4.388;2022-09-27T06:10:16;10.30;99.90
14519;DHT22;7346;50.846;4.388;2022-09-27T06:12:46;10.30;99.90
14519;DHT22;7346;50.846;4.388;2022-09-27T06:15:13;10.20;99.90
14519;DHT22;7346;50.846;4.388;2022-09-27T06:17:40;10.20;99.90
14519;DHT22;7346;50.846;4.388;2022-09-27T06:20:08;10.10;99.90
14519;DHT22;7346;50.846;4.388;2022-09-27T06:22:35;10.10;99.90
14519;DHT22;7346;50.846;4.388;2022-09-27T06:25:03;10.20;99.90
14519;DHT22;7346;50.846;4.388;2022-09-27T06:27:31;10.10;99.90
14519;DHT22;7346;50.846;4.388;2022-09-27T06:29:59;10.10;99.90
14519;DHT22;7346;50.846;4.388;2022-09-27T06:32:26;10.10;99.90
14519;DHT22;7346;50.846;4.388;2022-09-27T06:34:53;10.10;99.90
14519;DHT22;7346;50.846;4.388;2022-09-27T06:37:24;10.00;99.90
14519;DHT22;7346;50.846;4.388;2022-09-27T06:39:51;10.10;99.90
14519;DHT22;7346;50.846;4.388;2022-09-27T06:42:18;10.10;99.90
14519;DHT22;7346;50.846;4.388;2022-09-27T06:44:46;10.20;99.90
14519;DHT22;7346;50.846;4.388;2022-09-27T06:47:14;10.20;99.90
14519;DHT22;7346;50.846;4.388;2022-09-27T06:49:41;10.20;99.90
14519;DHT22;7346;50.846;4.388;2022-09-27T06:52:08;10.30;99.90
14519;DHT22;7346;50.846;4.388;2022-09-27T06:54:36;10.30;99.90
14519;DHT22;7346;50.846;4.388;2022-09-27T06:57:03;10.40;99.90
14519;DHT22;7346;50.846;4.388;2022-09-27T06:59:30;10.40;99.90
14519;DHT22;7346;50.846;4.388;2022-09-27T07:02:16;10.50;99.90
14519;DHT22;7346;50.846;4.388;2022-09-27T07:04:43;10.60;99.90
14519;DHT22;7346;50.846;4.388;2022-09-27T07:07:10;10.70;99.90
14519;DHT22;7346;50.846;4.388;2022-09-27T07:09:38;10.70;99.90
14519;DHT22;7346;50.846;4.388;2022-09-27T07:12:05;10.70;99.90
14519;DHT22;7346;50.846;4.388;2022-09-27T07:14:32;10.60;99.90
14519;DHT22;7346;50.846;4.388;2022-09-27T07:17:00;10.70;99.90
14519;DHT22;7346;50.846;4.388;2022-09-27T07:19:28;10.60;99.90
14519;DHT22;7346;50.846;4.388;2022-09-27T07:21:55;10.70;99.90
14519;DHT22;7346;50.846;4.388;2022-09-27T07:24:22;10.70;99.90
14519;DHT22;7346;50.846;4.388;2022-09-27T07:26:49;10.80;99.90
14519;DHT22;7346;50.846;4.388;2022-09-27T07:29:16;10.90;99.90
14519;DHT22;7346;50.846;4.388;2022-09-27T07:31:43;11.00;99.90
14519;DHT22;7346;50.846;4.388;2022-09-27T07:34:10;11.00;99.90
14519;DHT22;7346;50.846;4.388;2022-09-27T07:36:38;11.00;99.90
14519;DHT22;7346;50.846;4.388;2022-09-27T07:39:05;11.00;99.90
14519;DHT22;7346;50.846;4.388;2022-09-27T07:41:32;11.00;99.90
14519;DHT22;7346;50.846;4.388;2022-09-27T07:44:00;11.00;99.90
14519;DHT22;7346;50.846;4.388;2022-09-27T07:46:29;11.00;99.90
14519;DHT22;7346;50.846;4.388;2022-09-27T07:48:56;11.00;99.90
14519;DHT22;7346;50.846;4.388;2022-09-27T07:51:23;11.00;99.90
14519;DHT22;7346;50.846;4.388;2022-09-27T07:53:51;11.00;99.90
14519;DHT22;7346;50.846;4.388;2022-09-27T07:56:18;10.90;99.90
14519;DHT22;7346;50.846;4.388;2022-09-27T07:58:45;10.90;99.90
14519;DHT22;7346;50.846;4.388;2022-09-27T08:01:12;10.90;99.90
14519;DHT22;7346;50.846;4.388;2022-09-27T08:03:39;10.90;99.90
14519;DHT22;7346;50.846;4.388;2022-09-27T08:06:06;10.90;99.90
14519;DHT22;7346;50.846;4.388;2022-09-27T08:08:33;10.90;99.90
14519;DHT22;7346;50.846;4.388;2022-09-27T08:11:10;10.90;99.90
14519;DHT22;7346;50.846;4.388;2022-09-27T08:13:39;11.00;99.90
14519;DHT22;7346;50.846;4.388;2022-09-27T08:16:06;11.00;99.90
14519;DHT22;7346;50.846;4.388;2022-09-27T08:18:33;11.00;99.90
14519;DHT22;7346;50.846;4.388;2022-09-27T08:21:00;11.10;99.90
14519;DHT22;7346;50.846;4.388;2022-09-27T08:23:27;11.20;99.90
14519;DHT22;7346;50.846;4.388;2022-09-27T08:25:57;11.20;99.90
14519;DHT22;7346;50.846;4.388;2022-09-27T08:28:26;11.20;99.90
14519;DHT22;7346;50.846;4.388;2022-09-27T08:30:55;11.20;99.90
14519;DHT22;7346;50.846;4.388;2022-09-27T08:33:23;11.20;99.90
14519;DHT22;7346;50.846;4.388;2022-09-27T08:35:53;11.20;99.90
14519;DHT22;7346;50.846;4.388;2022-09-27T08:38:20;11.20;99.90
14519;DHT22;7346;50.846;4.388;2022-09-27T08:40:51;11.30;99.90
14519;DHT22;7346;50.846;4.388;2022-09-27T08:43:29;11.20;99.90
14519;DHT22;7346;50.846;4.388;2022-09-27T08:46:10;11.20;99.90
14519;DHT22;7346;50.846;4.388;2022-09-27T08:48:40;11.10;99.90
14519;DHT22;7346;50.846;4.388;2022-09-27T08:51:11;11.10;99.90
14519;DHT22;7346;50.846;4.388;2022-09-27T08:53:45;11.10;99.90
14519;DHT22;7346;50.846;4.388;2022-09-27T08:56:16;11.10;99.90
14519;DHT22;7346;50.846;4.388;2022-09-27T08:58:50;11.10;99.90
14519;DHT22;7346;50.846;4.388;2022-09-27T09:01:18;11.20;99.90
14519;DHT22;7346;50.846;4.388;2022-09-27T09:03:49;11.30;99.90
14519;DHT22;7346;50.846;4.388;2022-09-27T09:06:19;11.30;99.90
14519;DHT22;7346;50.846;4.388;2022-09-27T09:09:00;11.30;99.90
14519;DHT22;7346;50.846;4.388;2022-09-27T09:11:35;11.30;99.90
14519;DHT22;7346;50.846;4.388;2022-09-27T09:14:49;11.20;99.90
14519;DHT22;7346;50.846;4.388;2022-09-27T09:17:27;11.10;99.90
14519;DHT22;7346;50.846;4.388;2022-09-27T09:20:09;10.90;99.90
14519;DHT22;7346;50.846;4.388;2022-09-27T09:22:51;10.80;99.90
14519;DHT22;7346;50.846;4.388;2022-09-27T09:25:23;10.70;99.90
14519;DHT22;7346;50.846;4.388;2022-09-27T09:28:02;10.70;99.90
14519;DHT22;7346;50.846;4.388;2022-09-27T09:30:38;10.80;99.90
14519;DHT22;7346;50.846;4.388;2022-09-27T09:33:19;10.80;99.90
14519;DHT22;7346;50.846;4.388;2022-09-27T09:35:51;11.00;99.90
14519;DHT22;7346;50.846;4.388;2022-09-27T09:38:22;11.10;99.90
14519;DHT22;7346;50.846;4.388;2022-09-27T09:40:56;11.20;99.90
14519;DHT22;7346;50.846;4.388;2022-09-27T09:43:27;11.40;99.90
14519;DHT22;7346;50.846;4.388;2022-09-27T09:45:59;11.70;99.90
14519;DHT22;7346;50.846;4.388;2022-09-27T09:48:31;11.90;99.90
14519;DHT22;7346;50.846;4.388;2022-09-27T09:51:05;11.90;99.90
14519;DHT22;7346;50.846;4.388;2022-09-27T09:53:39;11.90;99.90
14519;DHT22;7346;50.846;4.388;2022-09-27T09:56:15;11.90;99.90
14519;DHT22;7346;50.846;4.388;2022-09-27T09:58:46;12.00;99.90
14519;DHT22;7346;50.846;4.388;2022-09-27T10:01:19;11.90;99.90
14519;DHT22;7346;50.846;4.388;2022-09-27T10:03:47;12.00;99.90
14519;DHT22;7346;50.846;4.388;2022-09-27T10:06:15;12.00;99.90
14519;DHT22;7346;50.846;4.388;2022-09-27T10:08:42;11.90;99.90
14519;DHT22;7346;50.846;4.388;2022-09-27T10:11:17;12.10;99.90
14519;DHT22;7346;50.846;4.388;2022-09-27T10:13:45;12.20;99.90
14519;DHT22;7346;50.846;4.388;2022-09-27T10:16:14;12.40;99.90
14519;DHT22;7346;50.846;4.388;2022-09-27T10:18:43;12.60;99.90
14519;DHT22;7346;50.846;4.388;2022-09-27T10:21:14;12.90;99.90
14519;DHT22;7346;50.846;4.388;2022-09-27T10:24:06;12.90;99.90
14519;DHT22;7346;50.846;4.388;2022-09-27T10:26:35;12.80;99.90
14519;DHT22;7346;50.846;4.388;2022-09-27T10:29:20;12.80;99.90
14519;DHT22;7346;50.846;4.388;2022-09-27T10:31:48;12.70;99.90
14519;DHT22;7346;50.846;4.388;2022-09-27T10:34:23;12.70;99.90
14519;DHT22;7346;50.846;4.388;2022-09-27T10:37:05;12.70;99.90
14519;DHT22;7346;50.846;4.388;2022-09-27T10:39:33;12.70;99.90
14519;DHT22;7346;50.846;4.388;2022-09-27T10:42:01;12.70;99.90
14519;DHT22;7346;50.846;4.388;2022-09-27T10:44:30;12.80;99.90
14519;DHT22;7346;50.846;4.388;2022-09-27T10:47:00;12.90;99.90
14519;DHT22;7346;50.846;4.388;2022-09-27T10:49:34;13.10;99.90
14519;DHT22;7346;50.846;4.388;2022-09-27T10:52:03;13.00;99.90
14519;DHT22;7346;50.846;4.388;2022-09-27T10:54:33;13.00;99.90
14519;DHT22;7346;50.846;4.388;2022-09-27T10:57:01;13.20;99.90
14519;DHT22;7346;50.846;4.388;2022-09-27T10:59:33;13.40;99.90
14519;DHT22;7346;50.846;4.388;2022-09-27T11:02:01;13.40;99.90
14519;DHT22;7346;50.846;4.388;2022-09-27T11:04:30;13.50;99.90
14519;DHT22;7346;50.846;4.388;2022-09-27T11:07:12;13.60;99.90
14519;DHT22;7346;50.846;4.388;2022-09-27T11:09:48;13.60;99.90
14519;DHT22;7346;50.846;4.388;2022-09-27T11:12:16;13.80;99.90
14519;DHT22;7346;50.846;4.388;2022-09-27T11:14:50;13.90;99.90
14519;DHT22;7346;50.846;4.388;2022-09-27T11:17:25;13.80;99.90
14519;DHT22;7346;50.846;4.388;2022-09-27T11:20:02;13.50;99.90
14519;DHT22;7346;50.846;4.388;2022-09-27T11:25:42;12.90;99.90
14519;DHT22;7346;50.846;4.388;2022-09-27T11:28:18;12.90;99.90
14519;DHT22;7346;50.846;4.388;2022-09-27T11:30:50;12.90;99.90
14519;DHT22;7346;50.846;4.388;2022-09-27T11:33:44;12.80;99.90
14519;DHT22;7346;50.846;4.388;2022-09-27T11:36:26;12.80;99.90
14519;DHT22;7346;50.846;4.388;2022-09-27T11:39:01;12.90;99.90
14519;DHT22;7346;50.846;4.388;2022-09-27T11:41:40;13.00;99.90
14519;DHT22;7346;50.846;4.388;2022-09-27T11:44:24;13.20;99.90
14519;DHT22;7346;50.846;4.388;2022-09-27T11:47:03;13.30;99.90
14519;DHT22;7346;50.846;4.388;2022-09-27T11:49:57;13.30;99.90
14519;DHT22;7346;50.846;4.388;2022-09-27T11:52:39;13.40;99.90
14519;DHT22;7346;50.846;4.388;2022-09-27T11:55:19;13.30;99.90
14519;DHT22;7346;50.846;4.388;2022-09-27T11:57:52;13.30;99.90
14519;DHT22;7346;50.846;4.388;2022-09-27T12:00:23;13.30;99.90
14519;DHT22;7346;50.846;4.388;2022-09-27T12:03:14;13.30;99.90
14519;DHT22;7346;50.846;4.388;2022-09-27T12:05:59;13.20;99.90
14519;DHT22;7346;50.846;4.388;2022-09-27T12:08:38;13.10;99.90
14519;DHT22;7346;50.846;4.388;2022-09-27T12:11:16;13.00;99.90
14519;DHT22;7346;50.846;4.388;2022-09-27T12:13:47;13.10;99.90
14519;DHT22;7346;50.846;4.388;2022-09-27T12:16:17;13.20;99.90
14519;DHT22;7346;50.846;4.388;2022-09-27T12:18:46;13.40;99.90
14519;DHT22;7346;50.846;4.388;2022-09-27T12:21:14;13.60;99.90
14519;DHT22;7346;50.846;4.388;2022-09-27T12:23:43;13.70;99.90
14519;DHT22;7346;50.846;4.388;2022-09-27T12:26:16;13.90;99.90
14519;DHT22;7346;50.846;4.388;2022-09-27T12:28:48;13.90;99.90
14519;DHT22;7346;50.846;4.388;2022-09-27T12:31:20;13.90;99.90
14519;DHT22;7346;50.846;4.388;2022-09-27T12:33:56;13.80;99.90
14519;DHT22;7346;50.846;4.388;2022-09-27T12:36:31;13.60;99.90
14519;DHT22;7346;50.846;4.388;2022-09-27T12:39:03;13.50;99.90
14519;DHT22;7346;50.846;4.388;2022-09-27T12:41:38;13.50;99.90
14519;DHT22;7346;50.846;4.388;2022-09-27T12:44:09;13.60;99.90
14519;DHT22;7346;50.846;4.388;2022-09-27T12:46:47;13.50;99.90
14519;DHT22;7346;50.846;4.388;2022-09-27T12:49:24;13.50;99.90
14519;DHT22;7346;50.846;4.388;2022-09-27T12:51:57;13.70;99.90
14519;DHT22;7346;50.846;4.388;2022-09-27T12:54:43;13.90;99.90
14519;DHT22;7346;50.846;4.388;2022-09-27T12:57:23;14.00;99.90
14519;DHT22;7346;50.846;4.388;2022-09-27T13:00:04;13.80;99.90
14519;DHT22;7346;50.846;4.388;2022-09-27T13:03:11;13.60;99.90
14519;DHT22;7346;50.846;4.388;2022-09-27T13:06:16;13.40;99.90
14519;DHT22;7346;50.846;4.388;2022-09-27T13:09:05;13.20;99.90
14519;DHT22;7346;50.846;4.388;2022-09-27T13:11:41;13.20;99.90
14519;DHT22;7346;50.846;4.388;2022-09-27T13:14:17;13.30;99.90
14519;DHT22;7346;50.846;4.388;2022-09-27T13:16:46;13.40;99.90
14519;DHT22;7346;50.846;4.388;2022-09-27T13:19:37;13.50;99.90
14519;DHT22;7346;50.846;4.388;2022-09-27T13:22:05;13.50;99.90
14519;DHT22;7346;50.846;4.388;2022-09-27T13:24:43;13.60;99.90
14519;DHT22;7346;50.846;4.388;2022-09-27T13:27:36;13.80;99.90
14519;DHT22;7346;50.846;4.388;2022-09-27T13:33:45;14.20;99.90
14519;DHT22;7346;50.846;4.388;2022-09-27T13:36:33;14.20;99.90
14519;DHT22;7346;50.846;4.388;2022-09-27T13:39:17;14.00;99.90
14519;DHT22;7346;50.846;4.388;2022-09-27T13:42:00;14.00;99.90
14519;DHT22;7346;50.846;4.388;2022-09-27T13:44:36;14.30;99.90
14519;DHT22;7346;50.846;4.388;2022-09-27T13:47:19;14.20;99.90
14519;DHT22;7346;50.846;4.388;2022-09-27T13:49:56;14.10;99.90
14519;DHT22;7346;50.846;4.388;2022-09-27T13:52:27;14.10;99.90
14519;DHT22;7346;50.846;4.388;2022-09-27T13:54:59;14.40;99.90
14519;DHT22;7346;50.846;4.388;2022-09-27T13:57:46;14.60;99.90
14519;DHT22;7346;50.846;4.388;2022-09-27T14:00:19;14.50;99.90
14519;DHT22;7346;50.846;4.388;2022-09-27T14:03:01;14.40;99.90
14519;DHT22;7346;50.846;4.388;2022-09-27T14:05:34;14.60;99.90
14519;DHT22;7346;50.846;4.388;2022-09-27T14:08:03;14.80;99.90
14519;DHT22;7346;50.846;4.388;2022-09-27T14:10:31;14.70;99.90
14519;DHT22;7346;50.846;4.388;2022-09-27T14:13:00;14.70;99.90
14519;DHT22;7346;50.846;4.388;2022-09-27T14:15:31;14.70;99.90
14519;DHT22;7346;50.846;4.388;2022-09-27T14:17:58;14.70;99.90
14519;DHT22;7346;50.846;4.388;2022-09-27T14:20:36;14.70;99.90
14519;DHT22;7346;50.846;4.388;2022-09-27T14:23:14;14.70;99.90
14519;DHT22;7346;50.846;4.388;2022-09-27T14:25:44;14.70;99.90
14519;DHT22;7346;50.846;4.388;2022-09-27T14:28:23;14.60;99.90
14519;DHT22;7346;50.846;4.388;2022-09-27T14:31:10;14.70;99.90
14519;DHT22;7346;50.846;4.388;2022-09-27T14:33:39;14.70;99.90
14519;DHT22;7346;50.846;4.388;2022-09-27T14:36:28;14.60;99.90
14519;DHT22;7346;50.846;4.388;2022-09-27T14:39:19;14.40;99.90
14519;DHT22;7346;50.846;4.388;2022-09-27T14:41:47;14.40;99.90
14519;DHT22;7346;50.846;4.388;2022-09-27T14:44:17;14.40;99.90
14519;DHT22;7346;50.846;4.388;2022-09-27T14:46:45;14.40;99.90
14519;DHT22;7346;50.846;4.388;2022-09-27T14:49:19;14.30;99.90
14519;DHT22;7346;50.846;4.388;2022-09-27T14:51:52;14.30;99.90
14519;DHT22;7346;50.846;4.388;2022-09-27T14:54:21;14.10;99.90
14519;DHT22;7346;50.846;4.388;2022-09-27T14:56:50;13.80;99.90
14519;DHT22;7346;50.846;4.388;2022-09-27T14:59:23;13.40;99.90
14519;DHT22;7346;50.846;4.388;2022-09-27T15:01:56;13.20;99.90
14519;DHT22;7346;50.846;4.388;2022-09-27T15:04:28;13.10;99.90
14519;DHT22;7346;50.846;4.388;2022-09-27T15:06:58;13.00;99.90
14519;DHT22;7346;50.846;4.388;2022-09-27T15:09:26;12.90;99.90
14519;DHT22;7346;50.846;4.388;2022-09-27T15:11:57;12.90;99.90
14519;DHT22;7346;50.846;4.388;2022-09-27T15:14:26;13.00;99.90
14519;DHT22;7346;50.846;4.388;2022-09-27T15:16:57;13.10;99.90
14519;DHT22;7346;50.846;4.388;2022-09-27T15:19:30;13.20;99.90
14519;DHT22;7346;50.846;4.388;2022-09-27T15:22:22;13.30;99.90
14519;DHT22;7346;50.846;4.388;2022-09-27T15:24:49;13.20;99.90
14519;DHT22;7346;50.846;4.388;2022-09-27T15:27:17;13.30;99.90
14519;DHT22;7346;50.846;4.388;2022-09-27T15:29:49;13.50;99.90
14519;DHT22;7346;50.846;4.388;2022-09-27T15:32:19;14.20;99.90
14519;DHT22;7346;50.846;4.388;2022-09-27T15:34:47;15.40;99.90
14519;DHT22;7346;50.846;4.388;2022-09-27T15:37:26;16.10;99.90
14519;DHT22;7346;50.846;4.388;2022-09-27T15:39:54;16.80;99.90
14519;DHT22;7346;50.846;4.388;2022-09-27T15:42:21;16.60;99.90
14519;DHT22;7346;50.846;4.388;2022-09-27T15:44:49;16.70;99.90
14519;DHT22;7346;50.846;4.388;2022-09-27T15:47:48;16.50;99.90
14519;DHT22;7346;50.846;4.388;2022-09-27T15:50:37;15.90;99.90
14519;DHT22;7346;50.846;4.388;2022-09-27T15:53:07;15.40;99.90
14519;DHT22;7346;50.846;4.388;2022-09-27T15:55:39;15.30;99.90
14519;DHT22;7346;50.846;4.388;2022-09-27T15:58:11;15.30;99.90
14519;DHT22;7346;50.846;4.388;2022-09-27T16:00:50;15.30;99.90
14519;DHT22;7346;50.846;4.388;2022-09-27T16:03:17;15.10;99.90
14519;DHT22;7346;50.846;4.388;2022-09-27T16:05:44;14.90;99.90
14519;DHT22;7346;50.846;4.388;2022-09-27T16:08:12;14.70;99.90
14519;DHT22;7346;50.846;4.388;2022-09-27T16:10:43;14.50;99.90
14519;DHT22;7346;50.846;4.388;2022-09-27T16:13:10;14.50;99.90
14519;DHT22;7346;50.846;4.388;2022-09-27T16:15:37;14.40;99.90
14519;DHT22;7346;50.846;4.388;2022-09-27T16:18:04;14.30;99.90
14519;DHT22;7346;50.846;4.388;2022-09-27T16:20:31;14.20;99.90
14519;DHT22;7346;50.846;4.388;2022-09-27T16:22:58;14.20;99.90
14519;DHT22;7346;50.846;4.388;2022-09-27T16:25:27;14.10;99.90
14519;DHT22;7346;50.846;4.388;2022-09-27T16:27:56;14.20;99.90